Time;durP1;ratioP1;P1;durP2;ratioP2;P2;SDS_P1;SDS_P2;PMS_P1;PMS_P2;Temp;Humidity;BMP_temperature;BMP_pressure;BME280_temperature;BME280_humidity;BME280_pressure;Samples;Min_cycle;Max_cycle;Signal;HPM_P1;HPM_P2
2022/07/19 00:00:46;;;;;;;4.63;2.83;;;27.40;39.40;;;27.72;29.75;98991.53;4984972;28;114775;-84
2022/07/19 00:03:14;;;;;;;4.00;2.57;;;27.40;39.50;;;27.69;29.69;98997.25;4980355;28;124569;-84
2022/07/19 00:05:41;;;;;;;4.77;3.07;;;27.40;39.60;;;27.64;29.77;98995.69;4989201;28;124935;-83
2022/07/19 00:08:07;;;;;;;5.80;2.60;;;27.30;39.60;;;27.60;29.76;99000.59;4983846;28;114310;-84
2022/07/19 00:10:34;;;;;;;5.03;2.53;;;27.20;39.80;;;27.58;29.68;99002.25;4982977;28;114392;-84
2022/07/19 00:13:01;;;;;;;4.63;2.87;;;27.20;39.90;;;27.53;30.26;98989.31;4990300;28;124048;-84
2022/07/19 00:15:27;;;;;;;4.83;3.13;;;27.20;40.00;;;27.49;29.97;98994.25;4982891;28;122902;-84
2022/07/19 00:17:54;;;;;;;6.20;3.07;;;27.20;40.20;;;27.45;29.97;98996.31;4983017;28;114615;-85
2022/07/19 00:20:22;;;;;;;5.23;2.63;;;27.10;40.30;;;27.42;30.56;98988.66;4977948;28;113953;-85
2022/07/19 00:22:49;;;;;;;3.93;2.80;;;27.00;40.40;;;27.40;30.39;98991.09;4971401;28;124264;-85
2022/07/19 00:25:16;;;;;;;4.67;3.03;;;27.00;40.60;;;27.36;30.39;98996.81;4986829;28;123959;-85
2022/07/19 00:27:42;;;;;;;4.07;2.60;;;27.00;40.60;;;27.32;30.46;98998.88;4976691;28;114309;-85
2022/07/19 00:30:11;;;;;;;3.50;2.70;;;26.90;40.60;;;27.29;30.82;98994.84;4974358;28;114052;-85
2022/07/19 00:32:37;;;;;;;3.50;2.30;;;26.90;40.80;;;27.27;30.66;98994.47;4977871;28;124114;-85
2022/07/19 00:35:04;;;;;;;3.50;2.30;;;26.90;41.00;;;27.24;30.54;98994.50;4983916;28;123861;-84
2022/07/19 00:37:31;;;;;;;4.23;2.47;;;26.90;41.10;;;27.22;30.93;98991.28;4990380;28;114965;-85
2022/07/19 00:39:57;;;;;;;4.70;2.90;;;26.80;41.30;;;27.20;30.81;98994.53;4985309;28;114848;-85
2022/07/19 00:42:24;;;;;;;4.30;2.50;;;26.80;41.40;;;27.15;31.10;98997.81;4979147;28;124026;-85
2022/07/19 00:44:51;;;;;;;4.80;2.53;;;26.80;41.50;;;27.12;31.32;99004.31;4983764;28;123440;-85
2022/07/19 00:47:17;;;;;;;4.87;2.50;;;26.70;41.50;;;27.07;31.24;98991.38;4979327;28;115240;-85
2022/07/19 00:49:44;;;;;;;5.10;3.03;;;26.70;41.70;;;27.03;31.72;98995.50;4980375;28;115212;-85
2022/07/19 00:52:13;;;;;;;5.50;3.03;;;26.60;41.90;;;26.99;31.64;99000.38;4983945;28;124598;-85
2022/07/19 00:54:41;;;;;;;6.90;3.07;;;26.60;42.20;;;26.96;32.32;99002.03;4982930;28;123278;-85
2022/07/19 00:57:09;;;;;;;4.17;2.80;;;26.60;42.50;;;26.93;32.10;98993.56;4985793;28;114412;-85
2022/07/19 00:59:35;;;;;;;4.50;3.13;;;26.50;42.80;;;26.89;32.26;98996.41;4980363;28;111917;-85
2022/07/19 01:02:02;;;;;;;5.00;2.87;;;26.50;43.00;;;26.86;32.34;98994.41;4984420;28;123992;-85
2022/07/19 01:04:29;;;;;;;4.83;2.77;;;26.50;43.10;;;26.82;32.63;98991.63;4985035;28;123608;-85
2022/07/19 01:06:55;;;;;;;5.67;2.77;;;26.40;43.20;;;26.79;32.74;98989.63;4985587;28;114891;-85
2022/07/19 01:09:22;;;;;;;6.73;3.00;;;26.40;43.30;;;26.76;32.41;98998.97;4987602;28;114448;-85
2022/07/19 01:11:50;;;;;;;5.83;3.10;;;26.40;43.50;;;26.72;32.96;98997.38;4985881;28;124559;-86
2022/07/19 01:14:16;;;;;;;5.40;3.00;;;26.40;43.60;;;26.68;32.85;98997.41;4984067;28;123823;-85
2022/07/19 01:16:45;;;;;;;4.00;2.80;;;26.30;43.60;;;26.63;32.30;99000.69;5000311;28;113866;-85
2022/07/19 01:19:13;;;;;;;6.03;3.00;;;26.30;43.60;;;26.57;32.76;98997.50;4990584;28;113288;-85
2022/07/19 01:21:40;;;;;;;4.70;3.00;;;26.20;43.60;;;26.51;33.04;98990.63;5004596;28;124195;-85
2022/07/19 01:24:08;;;;;;;5.70;2.40;;;26.20;43.70;;;26.45;32.81;98995.91;4985092;28;123813;-86
2022/07/19 01:26:36;;;;;;;5.70;3.07;;;26.10;43.80;;;26.43;32.87;98992.66;4990854;28;114697;-85
2022/07/19 01:29:03;;;;;;;4.57;2.80;;;26.10;44.00;;;26.40;33.27;98995.53;4991881;28;113534;-85
2022/07/19 01:31:30;;;;;;;6.00;3.30;;;26.00;44.00;;;26.38;32.91;98995.13;4995516;28;123591;-84
2022/07/19 01:33:56;;;;;;;4.83;3.03;;;26.00;44.10;;;26.35;33.05;98996.78;4993101;28;124109;-85
2022/07/19 01:36:23;;;;;;;3.63;2.33;;;26.00;44.30;;;26.33;33.23;98993.56;4994292;28;115684;-85
2022/07/19 01:38:49;;;;;;;7.40;3.20;;;26.00;44.40;;;26.31;33.18;98995.19;4987054;28;114894;-85
2022/07/19 01:41:16;;;;;;;8.83;3.23;;;25.90;44.40;;;26.28;33.12;98996.03;4989485;28;124032;-85
2022/07/19 01:43:44;;;;;;;5.60;3.53;;;25.90;44.50;;;26.27;33.23;98988.75;4984951;28;124352;-85
2022/07/19 01:46:10;;;;;;;3.90;2.70;;;25.90;44.60;;;26.24;33.36;98990.38;4991172;28;114243;-85
2022/07/19 01:48:37;;;;;;;5.70;2.90;;;25.80;44.60;;;26.22;33.60;98993.63;4988378;28;114067;-85
2022/07/19 01:51:03;;;;;;;7.90;4.07;;;25.80;44.70;;;26.22;33.46;99006.97;4988717;28;124127;-85
2022/07/19 01:53:30;;;;;;;4.63;2.97;;;25.80;44.70;;;26.17;33.40;99001.75;4974366;28;123022;-85
2022/07/19 01:55:56;;;;;;;5.27;2.77;;;25.80;44.80;;;26.15;33.40;98999.34;4991838;28;113357;-86
2022/07/19 01:58:23;;;;;;;4.70;2.90;;;25.70;44.80;;;26.13;33.70;98989.63;4986147;28;114248;-85
2022/07/19 02:00:50;;;;;;;4.23;2.67;;;25.70;44.80;;;26.09;33.99;98995.31;4990090;28;123977;-85
2022/07/19 02:03:18;;;;;;;8.47;2.83;;;25.70;45.00;;;26.09;34.10;98983.19;4964649;28;123070;-85
2022/07/19 02:05:44;;;;;;;4.37;3.03;;;25.70;45.10;;;26.07;34.01;98991.28;4982868;28;114637;-85
2022/07/19 02:08:11;;;;;;;7.03;3.43;;;25.60;45.10;;;26.05;33.98;98991.69;4983295;28;114576;-85
2022/07/19 02:10:37;;;;;;;5.63;2.90;;;25.60;45.20;;;26.03;33.85;98985.63;4985167;28;123583;-85
2022/07/19 02:13:04;;;;;;;4.80;2.60;;;25.60;45.30;;;26.00;34.24;98983.63;4976374;28;124120;-85
2022/07/19 02:15:30;;;;;;;4.10;3.17;;;25.60;45.40;;;25.97;33.84;98981.63;4981177;28;113747;-85
2022/07/19 02:17:57;;;;;;;6.03;3.60;;;25.50;45.40;;;25.94;33.90;98982.44;4985083;28;114147;-85
2022/07/19 02:20:23;;;;;;;4.67;3.40;;;25.50;45.40;;;25.92;34.32;98980.00;4995290;28;124383;-85
2022/07/19 02:22:50;;;;;;;5.20;3.00;;;25.50;45.50;;;25.89;34.28;98983.69;4980497;28;124055;-85
2022/07/19 02:25:17;;;;;;;3.40;2.80;;;25.50;45.60;;;25.87;34.07;98980.47;4989747;28;115265;-86
2022/07/19 02:27:44;;;;;;;6.40;3.40;;;25.50;45.60;;;25.83;34.10;98979.63;4980763;28;114474;-85
2022/07/19 02:30:13;;;;;;;5.20;3.70;;;25.50;45.70;;;25.80;34.45;98980.47;4982789;28;124437;-85
2022/07/19 02:32:40;;;;;;;3.60;3.10;;;25.40;45.80;;;25.79;34.68;98978.84;4974617;28;124363;-85
2022/07/19 02:35:08;;;;;;;4.97;2.80;;;25.40;45.90;;;25.76;34.26;98972.00;4987975;28;115447;-85
2022/07/19 02:37:35;;;;;;;3.53;2.70;;;25.40;46.00;;;25.75;34.56;98976.03;4985884;28;113267;-85
2022/07/19 02:40:02;;;;;;;3.33;2.53;;;25.30;46.00;;;25.74;34.69;98967.97;4986692;28;123369;-85
2022/07/19 02:42:28;;;;;;;5.60;3.07;;;25.30;46.10;;;25.71;34.74;98969.59;4981494;28;124116;-85
2022/07/19 02:44:55;;;;;;;4.60;2.63;;;25.30;46.10;;;25.70;34.97;98967.16;4987999;28;114273;-85
2022/07/19 02:47:21;;;;;;;11.80;3.77;;;25.30;46.80;;;25.67;34.75;98973.63;4985016;28;114035;-85
2022/07/19 02:49:48;;;;;;;9.07;3.00;;;25.30;46.20;;;25.64;34.31;98968.81;4981286;28;124062;-85
2022/07/19 02:52:15;;;;;;;4.37;3.10;;;25.20;46.10;;;25.60;34.73;98968.81;4986351;28;123974;-85
2022/07/19 02:54:41;;;;;;;8.10;3.40;;;25.20;46.80;;;25.56;34.77;98968.81;4988213;28;114471;-86
2022/07/19 02:57:08;;;;;;;5.03;2.97;;;25.20;46.30;;;25.52;34.96;98962.38;4986222;28;114215;-85
2022/07/19 02:59:34;;;;;;;3.63;2.40;;;25.10;46.40;;;25.52;35.01;98972.88;4987775;28;124160;-86
2022/07/19 03:02:01;;;;;;;7.10;3.10;;;25.10;46.40;;;25.48;34.94;98967.25;4990724;28;124015;-85
2022/07/19 03:04:27;;;;;;;3.70;2.70;;;25.10;46.50;;;25.45;35.10;98968.06;5006116;28;113965;-86
2022/07/19 03:06:54;;;;;;;4.80;2.90;;;25.10;46.50;;;25.41;35.00;98967.25;4991072;28;114078;-85
2022/07/19 03:09:21;;;;;;;4.50;2.80;;;25.00;46.50;;;25.39;34.96;98964.03;5007038;28;122253;-84
2022/07/19 03:11:47;;;;;;;8.30;3.17;;;25.00;46.60;;;25.37;35.27;98957.19;4979453;28;123045;-85
2022/07/19 03:14:14;;;;;;;3.57;2.53;;;25.00;46.80;;;25.34;35.09;98958.81;4984391;28;115326;-85
2022/07/19 03:16:40;;;;;;;3.40;2.63;;;24.90;46.70;;;25.31;35.06;98959.63;4987543;28;115078;-86
2022/07/19 03:19:08;;;;;;;5.67;3.07;;;24.90;46.70;;;25.28;35.31;98954.75;4987801;28;124047;-85
2022/07/19 03:21:35;;;;;;;5.27;2.80;;;24.90;46.80;;;25.26;35.17;98954.38;4990072;28;122547;-86
2022/07/19 03:24:02;;;;;;;4.73;2.60;;;24.80;46.80;;;25.23;35.44;98958.03;4995019;28;114410;-86
2022/07/19 03:26:28;;;;;;;3.77;2.60;;;24.80;47.00;;;25.20;35.55;98962.47;4980256;28;114053;-86
2022/07/19 03:28:55;;;;;;;3.97;2.90;;;24.80;47.00;;;25.17;35.29;98960.44;4987465;28;123893;-86
2022/07/19 03:31:22;;;;;;;6.17;3.20;;;24.70;47.00;;;25.13;35.69;98963.25;4985595;28;122987;-86
2022/07/19 03:33:48;;;;;;;5.13;2.97;;;24.70;47.10;;;25.12;35.68;98967.31;4976856;28;114334;-85
2022/07/19 03:36:14;;;;;;;6.20;3.20;;;24.70;47.20;;;25.09;35.36;98962.47;4985067;28;112766;-85
2022/07/19 03:38:41;;;;;;;6.70;2.67;;;24.70;47.20;;;25.05;35.39;98956.00;4990220;28;123157;-86
2022/07/19 03:41:08;;;;;;;4.47;2.80;;;24.70;47.10;;;25.03;35.46;98966.91;4977808;28;124133;-85
2022/07/19 03:43:38;;;;;;;6.17;3.00;;;24.60;47.10;;;25.01;35.49;98965.69;4990179;28;114620;-85
2022/07/19 03:46:04;;;;;;;3.37;2.77;;;24.60;47.20;;;24.99;35.53;98963.28;4988095;28;113903;-86
2022/07/19 03:48:31;;;;;;;4.13;3.00;;;24.60;47.20;;;24.96;35.39;98966.94;4981787;28;124890;-86
2022/07/19 03:50:57;;;;;;;5.00;3.20;;;24.50;47.80;;;24.95;35.44;98968.13;4988204;28;122815;-86
2022/07/19 03:53:24;;;;;;;3.40;2.27;;;24.50;47.20;;;24.94;35.66;98960.88;4980638;28;114382;-86
2022/07/19 03:55:50;;;;;;;3.90;2.57;;;24.50;47.30;;;24.93;35.50;98970.53;4984088;28;114278;-85
2022/07/19 03:58:17;;;;;;;7.40;3.00;;;24.50;47.30;;;24.90;35.90;98965.69;4972984;28;124194;-85
2022/07/19 04:00:45;;;;;;;5.00;3.17;;;24.50;47.50;;;24.89;36.06;98967.72;4984228;28;123918;-85
2022/07/19 04:03:12;;;;;;;5.50;3.20;;;24.50;47.70;;;24.89;36.24;98967.72;4989656;28;115039;-85
2022/07/19 04:05:41;;;;;;;5.57;2.97;;;24.50;47.80;;;24.93;35.95;98967.72;4977815;28;114869;-86
2022/07/19 04:08:08;;;;;;;7.40;3.63;;;24.50;48.00;;;24.98;35.87;98977.81;4987887;28;123981;-86
2022/07/19 04:10:34;;;;;;;9.70;2.93;;;24.50;48.10;;;25.04;35.92;98971.34;4977585;28;123842;-86
2022/07/19 04:13:01;;;;;;;6.27;2.73;;;24.50;48.10;;;25.10;35.93;98975.38;4984278;28;114698;-86
2022/07/19 04:15:28;;;;;;;5.60;2.90;;;24.50;48.20;;;25.10;36.01;98969.72;4982195;28;115085;-85
2022/07/19 04:17:54;;;;;;;8.83;3.43;;;24.50;48.10;;;25.07;35.79;98973.38;4971205;28;124228;-85
2022/07/19 04:20:21;;;;;;;5.87;3.93;;;24.50;48.10;;;25.05;35.97;98972.16;4986760;28;123010;-85
2022/07/19 04:22:48;;;;;;;8.40;3.47;;;24.50;48.20;;;25.04;36.12;98979.00;4986459;28;114222;-86
2022/07/19 04:25:14;;;;;;;4.20;3.07;;;24.50;48.20;;;25.02;36.05;98982.25;4992378;28;113218;-83
2022/07/19 04:27:41;;;;;;;7.10;3.30;;;24.50;48.20;;;25.01;36.20;98977.81;4983288;28;124741;-83
2022/07/19 04:30:08;;;;;;;2.97;2.67;;;24.50;48.20;;;25.01;36.29;98993.97;4985587;28;124251;-84
2022/07/19 04:32:35;;;;;;;7.53;3.40;;;24.50;48.30;;;24.98;36.24;98989.13;4987812;28;113989;-84
2022/07/19 04:35:02;;;;;;;4.77;3.17;;;24.50;48.30;;;24.96;36.50;98983.88;4980048;28;114005;-84
2022/07/19 04:37:29;;;;;;;6.10;2.80;;;24.50;48.40;;;24.97;36.12;98987.50;4984332;28;124108;-84
2022/07/19 04:39:55;;;;;;;5.30;2.80;;;24.50;48.50;;;24.97;36.69;98988.31;4977400;28;124285;-84
2022/07/19 04:42:22;;;;;;;3.40;2.53;;;24.50;48.60;;;24.99;36.56;98990.75;4983780;28;113893;-84
2022/07/19 04:44:48;;;;;;;6.77;3.50;;;24.50;48.80;;;25.00;36.60;98995.19;4976988;28;114377;-84
2022/07/19 04:47:15;;;;;;;5.50;3.03;;;24.50;48.80;;;25.01;36.68;98991.13;4977905;28;124008;-85
2022/07/19 04:49:42;;;;;;;10.27;2.90;;;24.50;48.80;;;25.05;36.37;98989.91;4976412;28;122744;-84
2022/07/19 04:52:09;;;;;;;9.50;3.27;;;24.50;48.80;;;25.06;36.59;98980.22;4976467;28;115133;-84
2022/07/19 04:54:36;;;;;;;3.67;2.73;;;24.60;49.00;;;25.10;36.41;98981.03;4983268;28;115296;-84
2022/07/19 04:57:02;;;;;;;4.70;3.00;;;24.50;48.90;;;25.14;36.70;98987.47;4984944;28;124474;-84
2022/07/19 04:59:29;;;;;;;3.07;2.37;;;24.60;49.10;;;25.16;36.54;98991.97;4989127;28;124312;-84
2022/07/19 05:01:55;;;;;;;6.03;3.30;;;24.60;49.00;;;25.19;36.26;98977.00;4992471;28;113955;-84
2022/07/19 05:04:22;;;;;;;4.37;2.93;;;24.70;49.10;;;25.22;36.31;98981.84;4989161;28;114468;-84
2022/07/19 05:06:51;;;;;;;10.77;2.77;;;24.70;49.00;;;25.22;35.95;98984.69;4990147;28;123141;-84
2022/07/19 05:09:18;;;;;;;8.03;2.97;;;24.70;48.80;;;25.17;36.12;98985.88;4991539;28;123829;-84
2022/07/19 05:11:45;;;;;;;4.87;3.37;;;24.60;48.50;;;25.14;36.11;98987.47;4986367;28;113792;-84
2022/07/19 05:14:12;;;;;;;5.33;3.33;;;24.60;48.60;;;25.17;36.20;98985.09;4992560;28;113632;-84
2022/07/19 05:16:39;;;;;;;4.03;3.40;;;24.60;48.60;;;25.16;36.38;98984.28;4992031;28;123416;-84
2022/07/19 05:19:06;;;;;;;5.27;3.23;;;24.70;48.60;;;25.20;36.03;98985.09;4993074;28;123944;-84
2022/07/19 05:21:32;;;;;;;4.33;2.70;;;24.70;48.60;;;25.23;35.86;98986.31;4988371;28;114687;-84
2022/07/19 05:23:59;;;;;;;4.83;3.40;;;24.70;48.60;;;25.25;36.08;98981.03;4989994;28;113982;-84
2022/07/19 05:26:25;;;;;;;4.93;3.03;;;24.70;48.50;;;25.26;36.19;98977.00;4988432;28;124030;-84
2022/07/19 05:28:52;;;;;;;6.90;3.30;;;24.70;48.50;;;25.31;35.90;98982.25;5006255;28;121902;-86
2022/07/19 05:31:19;;;;;;;4.40;3.00;;;24.70;48.50;;;25.35;35.87;98981.00;4992915;28;115124;-85
2022/07/19 05:33:45;;;;;;;7.00;2.90;;;24.80;48.50;;;25.40;35.80;98987.47;4989912;28;114066;-86
2022/07/19 05:36:12;;;;;;;8.20;3.20;;;24.80;48.50;;;25.44;35.71;98977.78;4989960;28;124087;-85
2022/07/19 05:38:39;;;;;;;3.80;3.13;;;24.90;48.60;;;25.49;35.87;98974.50;4989864;28;124265;-85
2022/07/19 05:41:07;;;;;;;5.87;3.07;;;24.90;48.50;;;25.56;35.53;98982.97;4984632;28;115257;-85
2022/07/19 05:43:36;;;;;;;4.97;2.90;;;25.00;48.60;;;25.63;35.68;98981.31;4989185;28;114906;-85
2022/07/19 05:46:03;;;;;;;7.30;3.37;;;25.00;48.60;;;25.70;35.43;98984.13;4986901;28;124403;-86
2022/07/19 05:48:30;;;;;;;5.20;3.00;;;25.10;48.50;;;25.74;35.80;98980.09;4987903;28;123620;-86
2022/07/19 05:50:58;;;;;;;5.40;3.17;;;25.10;48.40;;;25.81;35.71;98984.09;4985731;28;113588;-84
2022/07/19 05:53:26;;;;;;;6.47;3.40;;;25.20;48.40;;;25.87;35.33;98983.31;4987045;28;113842;-85
2022/07/19 05:55:52;;;;;;;9.73;3.83;;;25.20;48.40;;;25.93;35.33;98978.81;4971568;28;123544;-84
2022/07/19 05:58:19;;;;;;;6.27;3.10;;;25.30;48.40;;;26.00;35.18;98978.75;4987456;28;123099;-85
2022/07/19 06:03:32;;;;;;;5.83;3.70;;;25.40;48.20;;;26.07;35.33;98968.63;4990376;28;114705;-84
2022/07/19 06:05:58;;;;;;;6.57;3.53;;;25.40;48.20;;;26.12;35.34;98976.69;4988156;28;123284;-85
2022/07/19 06:08:25;;;;;;;6.87;3.90;;;25.40;48.10;;;26.17;34.90;98979.91;4988106;28;123159;-85
2022/07/19 06:10:52;;;;;;;5.20;3.50;;;25.50;48.00;;;26.26;34.68;98972.97;4970585;28;114057;-85
2022/07/19 06:13:22;;;;;;;5.47;3.37;;;25.60;47.80;;;26.32;34.62;98974.94;5001898;28;113106;-84
2022/07/19 06:15:49;;;;;;;7.93;3.70;;;25.70;47.70;;;26.40;34.63;98973.66;5003375;28;123867;-85
2022/07/19 06:18:17;;;;;;;6.40;3.40;;;25.70;47.60;;;26.47;34.48;98967.16;4996757;28;123715;-86
2022/07/19 06:20:44;;;;;;;5.03;3.40;;;25.80;47.60;;;26.55;34.34;98976.44;4991206;28;113642;-85
2022/07/19 06:23:10;;;;;;;7.67;4.17;;;25.80;47.50;;;26.62;34.81;98968.69;4987652;28;113978;-85
2022/07/19 06:25:37;;;;;;;6.20;3.20;;;25.90;47.60;;;26.70;34.38;98972.25;4987560;28;123649;-85
2022/07/19 06:28:04;;;;;;;6.40;3.37;;;26.00;47.40;;;26.80;34.15;98971.38;4985590;28;124532;-85
2022/07/19 06:30:30;;;;;;;6.50;3.13;;;26.00;47.40;;;26.90;34.36;98980.22;4984371;28;115526;-85
2022/07/19 06:32:57;;;;;;;5.27;3.43;;;26.10;47.20;;;26.97;33.74;98968.78;4986993;28;115173;-85
2022/07/19 06:35:24;;;;;;;5.40;3.60;;;26.20;47.10;;;27.03;33.91;98978.47;4987123;28;122998;-85
2022/07/19 06:37:50;;;;;;;6.90;4.00;;;26.30;46.90;;;27.08;33.94;98975.16;4985809;28;123842;-85
2022/07/19 06:40:17;;;;;;;8.17;4.10;;;26.30;46.60;;;27.15;33.32;98975.09;4988968;28;113569;-84
2022/07/19 06:42:43;;;;;;;7.87;4.23;;;26.40;46.60;;;27.22;33.39;98969.41;4985868;28;113961;-85
2022/07/19 06:45:10;;;;;;;6.17;4.10;;;26.50;46.50;;;27.28;33.35;98970.53;4986644;28;123972;-84
2022/07/19 06:47:37;;;;;;;8.07;4.13;;;26.50;46.40;;;27.33;33.51;98963.63;5000899;28;122841;-84
2022/07/19 06:50:04;;;;;;;9.80;4.40;;;26.60;46.50;;;27.38;33.61;98962.31;4999880;28;114212;-85
2022/07/19 06:52:31;;;;;;;9.27;5.17;;;26.60;46.50;;;27.44;32.99;98966.31;4994313;28;112729;-85
2022/07/19 06:54:57;;;;;;;7.13;4.00;;;26.70;46.50;;;27.51;33.16;98957.72;4982100;28;123831;-85
2022/07/19 06:57:24;;;;;;;5.80;3.77;;;26.70;46.30;;;27.57;33.52;98956.03;4987578;28;123382;-84
2022/07/19 06:59:50;;;;;;;9.47;4.00;;;26.80;46.30;;;27.67;33.47;98955.13;4986284;28;114275;-85
2022/07/19 07:02:17;;;;;;;7.40;3.87;;;26.90;46.30;;;27.76;33.01;98951.75;4990687;28;114275;-85
2022/07/19 07:04:43;;;;;;;8.70;3.60;;;27.00;46.20;;;27.84;32.75;98952.50;4988815;28;124059;-85
2022/07/19 07:07:10;;;;;;;8.10;4.70;;;27.00;46.00;;;27.93;32.77;98949.94;4987667;28;123973;-85
2022/07/19 07:09:36;;;;;;;14.80;4.77;;;27.10;46.00;;;27.97;32.69;98950.69;4988043;28;113607;-85
2022/07/19 07:12:03;;;;;;;15.43;4.77;;;27.20;46.00;;;28.03;32.82;98954.66;4989146;28;113480;-85
2022/07/19 07:14:29;;;;;;;11.00;4.57;;;27.20;46.00;;;28.11;32.85;98950.50;4992337;28;124278;-85
2022/07/19 07:16:57;;;;;;;13.27;4.47;;;27.30;46.10;;;28.20;32.83;98941.44;4986490;28;124002;-84
2022/07/19 07:19:24;;;;;;;6.50;4.20;;;27.40;46.00;;;28.29;32.76;98949.41;4989564;28;115466;-84
2022/07/19 07:21:50;;;;;;;8.13;4.40;;;27.50;46.00;;;28.37;32.60;98950.91;4990848;28;114756;-84
2022/07/19 07:24:17;;;;;;;12.10;4.70;;;27.60;45.80;;;28.47;32.37;98954.84;4988644;28;124255;-86
2022/07/19 07:26:43;;;;;;;10.77;4.57;;;27.60;45.60;;;28.55;32.26;98947.81;4989038;28;123789;-85
2022/07/19 07:29:10;;;;;;;8.60;5.10;;;27.70;45.50;;;28.65;32.14;98944.00;4988604;28;114248;-86
2022/07/19 07:31:36;;;;;;;15.40;5.20;;;27.80;45.30;;;28.73;31.83;98939.00;4987466;28;113480;-86
2022/07/19 07:34:03;;;;;;;9.30;3.57;;;27.90;45.10;;;28.78;31.61;98932.81;4991197;28;123834;-85
2022/07/19 07:36:31;;;;;;;9.43;4.20;;;27.90;44.90;;;28.88;31.56;98937.50;4992196;28;124041;-85
2022/07/19 07:38:57;;;;;;;7.90;3.47;;;28.10;44.70;;;28.96;31.37;98932.50;4989024;28;114313;-86
2022/07/19 07:41:24;;;;;;;10.73;4.20;;;28.20;44.50;;;29.05;31.11;98933.56;4994626;28;114212;-86
2022/07/19 07:43:50;;;;;;;12.83;4.43;;;28.20;44.20;;;29.15;30.78;98930.94;4988302;28;123353;-86
2022/07/19 07:46:17;;;;;;;9.03;3.80;;;28.30;43.80;;;29.24;30.41;98928.34;4988245;28;124144;-86
2022/07/19 07:48:43;;;;;;;5.90;2.57;;;28.40;43.20;;;29.33;30.07;98922.88;4989247;28;114073;-86
2022/07/19 07:51:10;;;;;;;6.47;2.90;;;28.50;43.00;;;29.42;29.97;98917.44;4988036;28;113397;-87
2022/07/19 07:53:36;;;;;;;9.50;4.07;;;28.60;42.80;;;29.49;29.35;98914.41;4988761;28;123894;-86
2022/07/19 07:56:03;;;;;;;3.90;2.83;;;28.60;42.00;;;29.57;28.64;98919.97;4988602;28;124474;-87
2022/07/19 07:58:30;;;;;;;6.50;2.67;;;28.80;41.30;;;29.62;28.67;98920.25;4991423;28;113403;-88
2022/07/19 08:00:57;;;;;;;6.00;3.00;;;28.80;40.90;;;29.70;28.37;98916.03;4989619;28;114057;-86
2022/07/19 08:03:23;;;;;;;6.00;3.03;;;28.90;40.70;;;29.78;28.45;98921.59;4980679;28;123534;-86
2022/07/19 08:05:50;;;;;;;4.93;2.77;;;28.90;40.30;;;29.86;27.72;98925.88;4980340;28;124009;-86
2022/07/19 08:08:17;;;;;;;6.00;2.83;;;29.00;40.10;;;29.95;27.49;98926.09;4981895;28;115581;-87
2022/07/19 08:10:44;;;;;;;4.83;2.97;;;29.20;39.80;;;30.02;27.56;98914.53;4981737;28;114887;-86
2022/07/19 08:13:11;;;;;;;4.77;2.30;;;29.20;39.40;;;30.09;26.93;98914.38;4992401;28;123367;-87
2022/07/19 08:15:38;;;;;;;7.13;2.60;;;29.30;39.10;;;30.16;26.65;98907.69;4986379;28;123911;-86
2022/07/19 08:18:05;;;;;;;5.83;2.50;;;29.40;38.60;;;30.22;26.71;98917.31;4989857;28;114485;-86
2022/07/19 08:20:33;;;;;;;3.73;2.30;;;29.40;38.30;;;30.29;26.05;98916.41;4992415;28;114106;-86
2022/07/19 08:23:00;;;;;;;6.93;2.80;;;29.50;37.30;;;30.34;24.81;98910.97;4988537;28;124092;-87
2022/07/19 08:25:27;;;;;;;4.50;2.50;;;29.60;35.90;;;30.43;24.79;98912.38;4988460;28;123824;-86
2022/07/19 08:27:54;;;;;;;4.03;2.90;;;29.60;35.80;;;30.48;24.71;98917.56;4990022;28;114512;-86
2022/07/19 08:30:20;;;;;;;3.20;2.60;;;29.70;35.30;;;30.52;23.96;98912.56;4987141;28;113982;-87
2022/07/19 08:32:47;;;;;;;5.90;2.60;;;29.80;34.70;;;30.57;23.68;98906.31;4982169;28;123659;-87
2022/07/19 08:35:14;;;;;;;3.63;2.10;;;29.90;34.50;;;30.62;23.61;98900.09;4985843;28;123028;-87
2022/07/19 08:37:40;;;;;;;3.10;1.90;;;29.90;34.20;;;30.71;23.79;98905.97;4991544;28;113459;-87
2022/07/19 08:40:08;;;;;;;2.40;1.80;;;30.00;34.00;;;30.78;23.49;98907.81;4987788;28;114122;-87
2022/07/19 08:42:35;;;;;;;3.53;1.70;;;30.10;34.00;;;30.86;23.74;98902.78;4991188;28;123815;-87
2022/07/19 08:45:06;;;;;;;3.37;1.77;;;30.10;33.50;;;30.91;23.43;98899.38;4987288;28;124321;-87
2022/07/19 08:47:33;;;;;;;3.90;2.07;;;30.20;33.20;;;30.96;22.82;98901.69;4986093;28;114303;-87
2022/07/19 08:50:02;;;;;;;2.03;1.80;;;30.20;33.10;;;31.01;23.41;98899.09;4988102;28;114043;-88
2022/07/19 08:52:28;;;;;;;7.60;2.17;;;30.30;33.00;;;31.07;23.05;98895.69;4986814;28;124023;-88
2022/07/19 08:54:56;;;;;;;3.10;2.10;;;30.30;32.60;;;31.11;23.15;98902.09;4990173;28;124018;-87
2022/07/19 09:00:10;;;;;;;6.50;1.87;;;30.50;32.50;;;31.15;22.74;98902.81;4990410;28;115835;-88
2022/07/19 09:02:36;;;;;;;2.33;1.90;;;30.50;32.60;;;31.20;23.00;98903.06;4972504;28;123271;-87
2022/07/19 09:05:09;;;;;;;6.63;1.90;;;30.50;32.50;;;31.23;22.90;98898.50;4987320;28;123962;-87
2022/07/19 09:07:38;;;;;;;2.97;1.83;;;30.60;32.40;;;31.24;22.19;98912.31;4991698;28;114634;-87
2022/07/19 09:10:20;;;;;;;5.23;2.53;;;30.60;31.90;;;31.25;22.73;98902.50;4978197;28;113538;-87
2022/07/19 09:13:07;;;;;;;2.70;2.03;;;30.70;32.00;;;31.30;22.33;98897.47;4974127;28;124520;-88
2022/07/19 09:15:54;;;;;;;3.00;1.90;;;30.70;31.90;;;31.33;22.83;98896.59;4987380;28;123878;-84
2022/07/19 09:18:30;;;;;;;5.10;2.37;;;30.80;31.90;;;31.38;22.38;98896.88;4989148;28;114625;-84
2022/07/19 09:21:04;;;;;;;3.53;2.27;;;30.80;31.90;;;31.44;22.63;98899.97;4985547;28;114118;-84
2022/07/19 09:23:33;;;;;;;3.87;2.00;;;30.80;31.80;;;31.52;22.80;98886.28;4988949;28;124215;-83
2022/07/19 09:26:03;;;;;;;3.40;1.50;;;30.90;31.80;;;31.59;22.18;98884.00;4986540;28;123851;-84
2022/07/19 09:28:33;;;;;;;5.80;2.40;;;30.90;31.80;;;31.64;21.76;98883.44;4987077;28;114311;-83
2022/07/19 09:31:02;;;;;;;4.60;2.40;;;31.00;31.40;;;31.70;21.57;98875.09;4985168;28;114035;-83
2022/07/19 09:33:31;;;;;;;7.10;3.07;;;31.10;31.00;;;31.76;21.41;98884.75;4985523;28;123238;-83
2022/07/19 09:36:11;;;;;;;2.43;2.00;;;31.20;30.30;;;31.81;20.96;98887.03;4981181;28;122823;-83
2022/07/19 09:38:42;;;;;;;2.93;2.20;;;31.20;29.90;;;31.87;21.28;98884.41;4984379;28;114521;-83
2022/07/19 09:41:17;;;;;;;3.97;2.43;;;31.30;30.00;;;31.91;20.60;98890.81;4983560;28;115406;-83
2022/07/19 09:44:05;;;;;;;5.20;2.67;;;31.30;29.50;;;31.95;20.60;98880.09;4984702;28;124794;-83
2022/07/19 09:46:34;;;;;;;4.97;2.40;;;31.40;29.30;;;32.03;20.73;98878.63;4984345;28;123961;-83
2022/07/19 09:49:04;;;;;;;6.23;2.50;;;31.40;29.30;;;32.09;20.31;98890.28;4989636;28;114573;-83
2022/07/19 09:51:34;;;;;;;5.33;3.20;;;31.50;29.30;;;32.11;20.13;98882.06;4992327;28;114469;-83
2022/07/19 09:54:03;;;;;;;7.77;2.70;;;31.50;28.50;;;32.13;19.78;98877.47;4988355;28;124140;-84
2022/07/19 09:56:31;;;;;;;4.93;2.53;;;31.60;28.80;;;32.19;19.74;98876.88;4988443;28;123974;-83
2022/07/19 09:58:59;;;;;;;3.87;2.47;;;31.60;28.90;;;32.23;20.31;98880.44;4990836;28;113013;-83
2022/07/19 10:01:26;;;;;;;7.43;3.00;;;31.60;28.70;;;32.26;20.00;98866.00;4984742;28;114115;-83
2022/07/19 10:03:58;;;;;;;6.10;2.60;;;31.70;28.80;;;32.31;20.14;98870.38;4973582;28;122490;-83
2022/07/19 10:06:25;;;;;;;4.23;2.43;;;31.80;28.50;;;32.35;20.07;98876.78;5008246;28;124284;-83
2022/07/19 10:08:55;;;;;;;6.20;2.73;;;31.80;28.40;;;32.38;20.16;98881.59;4984556;28;113828;-84
2022/07/19 10:11:22;;;;;;;3.67;2.50;;;31.80;28.50;;;32.43;19.96;98869.56;4966707;28;113972;-83
2022/07/19 10:13:53;;;;;;;5.10;2.50;;;31.90;28.50;;;32.45;19.87;98867.03;4987425;28;124514;-84
2022/07/19 10:16:49;;;;;;;3.37;2.70;;;31.90;28.50;;;32.49;19.68;98862.03;4988441;28;123696;-83
2022/07/19 10:19:48;;;;;;;5.67;2.80;;;32.00;28.40;;;32.50;19.51;98851.38;4990928;28;114347;-83